Hooh Maru — JD4062 — position and weather

sailwx.info

Track history (hours):
 
Tides and Currents Weather Stations Pressure Air Temp Water Temp Dewpoint Dewpoint Depression Visibility Wind Speed Wind Dir Waves Ship Positions

Hooh Maru

Last reported at 2018-Jun-20 15:22 UTC. Time now 2018-Jun-23 11:50 UTC.
Position N 34°24' E 134°14'.

Length 38 m; draft 3 m.

Type: Tug. MMSI: 431008315.

Date/timePositionNaut miles runAvg speedWind from/ knotsBaromVisibWave heightAir tempDewpointWater temp
2018-Jun-20 15:22N 34°24' E 134°14'5 5.1
2018-Jun-20 14:19N 34°25' E 134°21'1 4.4
2018-Jun-20 14:00N 34°25' E 134°22'2 4.5
2018-Jun-20 13:29N 34°26' E 134°25'2 3.8
2018-Jun-20 13:00N 34°27' E 134°27'2 3.5
2018-Jun-20 12:29N 34°28' E 134°29'2 4.3
2018-Jun-20 12:00N 34°28' E 134°31'2 4.8
2018-Jun-20 11:30N 34°29' E 134°34'3 4.7
2018-Jun-20 10:58N 34°30' E 134°37'2 4.8
2018-Jun-20 10:30N 34°31' E 134°39'3 5.2
2018-Jun-20 10:00N 34°32' E 134°42'2 4.8
2018-Jun-20 09:29N 34°33' E 134°45'3 5.6
2018-Jun-20 09:00N 34°34' E 134°48'3 5.5
2018-Jun-20 08:29N 34°35' E 134°51'3 5.6
2018-Jun-20 07:59N 34°36' E 134°54'4 6.1
2018-Jun-20 07:24N 34°37' E 134°58'2 5.2
2018-Jun-20 06:57N 34°37' E 135°01'2 5.0
2018-Jun-20 06:30N 34°36' E 135°04'2 4.2
2018-Jun-20 06:00N 34°36' E 135°06'2 3.8
2018-Jun-20 05:30N 34°36' E 135°08'2 3.7
2018-Jun-20 05:00N 34°36' E 135°11'2 4.5
2018-Jun-20 04:30N 34°37' E 135°13'3 5.3
2018-Jun-20 04:00N 34°37' E 135°16'3 5.5
2018-Jun-20 03:30N 34°38' E 135°19'0 0.8
2018-Jun-20 03:00N 34°39' E 135°20'0 0.3
2018-Jun-20 02:30N 34°39' E 135°20'0 0.3
2018-Jun-20 02:00N 34°39' E 135°20'6 0.4
2018-Jun-19 11:09N 34°40' E 135°27'1 9.2
2018-Jun-19 11:00N 34°39' E 135°26'5 9.7
2018-Jun-19 10:30N 34°39' E 135°20'2 3.5
2018-Jun-19 10:00N 34°40' E 135°21'1 3.0
2018-Jun-19 09:30N 34°42' E 135°21'0 0.2
2018-Jun-19 09:00N 34°42' E 135°21'0 0.3
2018-Jun-19 08:30N 34°42' E 135°21'0 0.2
2018-Jun-19 08:00N 34°42' E 135°21'0 0.0
2018-Jun-19 07:30N 34°42' E 135°21'0 0.0
2018-Jun-19 07:00N 34°42' E 135°21'0 0.0
2018-Jun-19 06:30N 34°42' E 135°21'0 0.0
2018-Jun-19 06:00N 34°42' E 135°21'0 0.0
2018-Jun-19 05:30N 34°42' E 135°21'0 0.1
2018-Jun-19 05:00N 34°42' E 135°21'0 0.0
2018-Jun-19 04:29N 34°42' E 135°21'0 0.1
2018-Jun-19 03:59N 34°42' E 135°21'0 0.0
2018-Jun-19 03:30N 34°42' E 135°21'0 0.0
2018-Jun-19 03:00N 34°42' E 135°21'4 7.6
2018-Jun-19 02:30N 34°39' E 135°25'2 0.8
2018-Jun-18 23:31N 34°40' E 135°27'0 0.0
2018-Jun-18 23:05N 34°40' E 135°27'0 0.0
2018-Jun-18 22:46N 34°40' E 135°27'0 0.0
2018-Jun-18 06:57N 34°40' E 135°27'410.0
2018-Jun-18 06:30N 34°41' E 135°22'1 2.2
2018-Jun-18 06:00N 34°42' E 135°21'0 0.0
2018-Jun-18 05:29N 34°42' E 135°21'0 0.0
2018-Jun-18 05:00N 34°42' E 135°21'0 0.0
2018-Jun-18 04:30N 34°42' E 135°21'0 0.1
2018-Jun-18 04:00N 34°42' E 135°21'0 0.0
2018-Jun-18 03:30N 34°42' E 135°21'0 0.0
2018-Jun-18 03:00N 34°42' E 135°21'0 0.0
2018-Jun-18 02:30N 34°42' E 135°21'0 0.0
2018-Jun-18 02:00N 34°42' E 135°21'0 0.0
2018-Jun-18 01:30N 34°42' E 135°21'0 0.0
2018-Jun-18 01:00N 34°42' E 135°21'0 0.0
2018-Jun-18 00:30N 34°42' E 135°21'0 0.0
2018-Jun-18 00:00N 34°42' E 135°21'0 0.0
2018-Jun-17 23:30N 34°42' E 135°21'0 0.0
2018-Jun-17 23:00N 34°42' E 135°21'0 0.0
2018-Jun-17 22:30N 34°42' E 135°21'0 0.0
2018-Jun-17 22:00N 34°42' E 135°21'0 0.0
2018-Jun-17 21:30N 34°42' E 135°21'0 0.0
2018-Jun-17 21:00N 34°42' E 135°21'0 0.0
2018-Jun-17 20:30N 34°42' E 135°21'0 0.0
2018-Jun-17 20:00N 34°42' E 135°21'0 0.0
2018-Jun-17 19:30N 34°42' E 135°21'0 0.0
2018-Jun-17 19:00N 34°42' E 135°21'0 0.0
2018-Jun-17 18:30N 34°42' E 135°21'0 0.0
2018-Jun-17 18:00N 34°42' E 135°21'0 0.0
2018-Jun-17 17:30N 34°42' E 135°21'0 0.0
2018-Jun-17 17:00N 34°42' E 135°21'0 0.0
2018-Jun-17 16:30N 34°42' E 135°21'0 0.0
2018-Jun-17 16:00N 34°42' E 135°21'0 0.0
2018-Jun-17 15:30N 34°42' E 135°21'0 0.0
2018-Jun-17 15:00N 34°42' E 135°21'0 0.0
2018-Jun-17 14:30N 34°42' E 135°21'0 0.0
2018-Jun-17 14:00N 34°42' E 135°21'0 0.0
2018-Jun-17 13:30N 34°42' E 135°21'0 0.0
2018-Jun-17 13:00N 34°42' E 135°21'0 0.0
2018-Jun-17 12:30N 34°42' E 135°21'0 0.0
2018-Jun-17 12:00N 34°42' E 135°21'0 0.1
2018-Jun-17 11:30N 34°42' E 135°21'0 0.0
2018-Jun-17 11:00N 34°42' E 135°21'0 0.1
2018-Jun-17 10:30N 34°42' E 135°21'0 0.0
2018-Jun-17 10:00N 34°42' E 135°21'0 0.1
2018-Jun-17 09:30N 34°42' E 135°21'0 0.0
2018-Jun-17 09:00N 34°42' E 135°21'0 0.0
2018-Jun-17 08:30N 34°42' E 135°21'0 0.0
2018-Jun-17 08:00N 34°42' E 135°21'0 0.0
2018-Jun-17 07:30N 34°42' E 135°21'0 0.0
2018-Jun-17 07:00N 34°42' E 135°21'0 0.0
2018-Jun-17 06:30N 34°42' E 135°21'0 0.0
2018-Jun-17 06:00N 34°42' E 135°21'0 0.0
2018-Jun-17 05:30N 34°42' E 135°21'0 0.0
2018-Jun-17 05:00N 34°42' E 135°21'0 0.0
2018-Jun-17 04:30N 34°42' E 135°21'0 0.0
2018-Jun-17 04:00N 34°42' E 135°21'0 0.0
2018-Jun-17 03:30N 34°42' E 135°21'0 0.1
2018-Jun-17 03:00N 34°42' E 135°21'1 1.5
2018-Jun-17 02:30N 34°41' E 135°22'3 5.5
2018-Jun-17 02:00N 34°38' E 135°23'3 5.1
2018-Jun-17 01:30N 34°39' E 135°26'0 0.2
2018-Jun-17 01:00N 34°39' E 135°26'0 0.2
2018-Jun-17 00:30N 34°39' E 135°26'0 0.1
2018-Jun-17 00:00N 34°39' E 135°26'0 0.0
2018-Jun-16 23:30N 34°39' E 135°26'0 0.0
2018-Jun-16 23:00N 34°39' E 135°26'0 0.0
2018-Jun-16 22:30N 34°39' E 135°26'0 0.1
2018-Jun-16 21:58N 34°39' E 135°26'0 0.0
2018-Jun-16 21:30N 34°39' E 135°26'0 0.3
2018-Jun-16 21:00N 34°39' E 135°26'2 4.2
2018-Jun-16 20:30N 34°38' E 135°23'3 5.1
2018-Jun-16 20:00N 34°37' E 135°21'2 4.9
2018-Jun-16 19:30N 34°37' E 135°18'3 5.9
2018-Jun-16 18:59N 34°40' E 135°15'2 3.7
2018-Jun-16 18:30N 34°41' E 135°14'0 0.2
2018-Jun-16 18:00N 34°41' E 135°14'0 0.0
2018-Jun-16 17:30N 34°41' E 135°14'0 0.0
2018-Jun-16 17:00N 34°41' E 135°14'0 0.0
2018-Jun-16 16:30N 34°41' E 135°14'0 0.0
2018-Jun-16 16:00N 34°41' E 135°14'0 0.0
2018-Jun-16 15:30N 34°41' E 135°14'0 0.0
2018-Jun-16 15:00N 34°41' E 135°14'0 0.0
2018-Jun-16 14:30N 34°41' E 135°14'0 0.0
2018-Jun-16 14:00N 34°41' E 135°14'0 0.0
2018-Jun-16 13:30N 34°41' E 135°14'0 0.0
2018-Jun-16 13:00N 34°41' E 135°14'0 0.0
2018-Jun-16 12:30N 34°41' E 135°14'0 0.0
2018-Jun-16 12:00N 34°41' E 135°14'0 0.0
2018-Jun-16 11:30N 34°41' E 135°14'0 0.0
2018-Jun-16 11:00N 34°41' E 135°14'0 0.0
2018-Jun-16 10:30N 34°41' E 135°14'0 0.0
2018-Jun-16 10:00N 34°41' E 135°14'0 0.0
2018-Jun-16 09:30N 34°41' E 135°14'0 0.0
2018-Jun-16 09:00N 34°41' E 135°14'0 0.0
2018-Jun-16 08:30N 34°41' E 135°14'0 0.0
2018-Jun-16 08:00N 34°41' E 135°14'0 0.0
2018-Jun-16 07:30N 34°41' E 135°14'0 0.0
2018-Jun-16 06:58N 34°41' E 135°14'0 0.0
2018-Jun-16 06:30N 34°41' E 135°14'0 0.0
2018-Jun-16 06:00N 34°41' E 135°14'3 5.8
2018-Jun-16 05:30N 34°41' E 135°18'612.8
2018-Jun-16 05:00N 34°39' E 135°25'2 0.1
2018-Jun-15 00:27N 34°40' E 135°27'0 0.0
2018-Jun-14 20:36N 34°40' E 135°27'1 0.0
2018-Jun-14 08:15N 34°40' E 135°27'312.2
2018-Jun-14 08:00N 34°38' E 135°24'5 9.7
2018-Jun-14 07:30N 34°33' E 135°24'1 1.5
2018-Jun-14 06:50N 34°33' E 135°25'1 0.3
2018-Jun-14 02:24N 34°33' E 135°27'0 0.0
2018-Jun-14 00:44N 34°33' E 135°27'0 0.0
2018-Jun-14 00:27N 34°33' E 135°27'0 0.0
2018-Jun-13 23:25N 34°33' E 135°27'2 5.2
2018-Jun-13 23:00N 34°33' E 135°24'1 2.4
2018-Jun-13 22:30N 34°32' E 135°24'1 2.8
2018-Jun-13 22:00N 34°33' E 135°23'0 0.3
2018-Jun-13 21:31N 34°33' E 135°23'611.3
2018-Jun-13 21:01N 34°39' E 135°25'2 0.1
2018-Jun-13 04:14N 34°40' E 135°27'210.3
2018-Jun-13 04:01N 34°39' E 135°25'611.4
2018-Jun-13 03:30N 34°33' E 135°23'1 1.4
2018-Jun-13 02:56N 34°33' E 135°24'0 0.0
2018-Jun-13 02:28N 34°33' E 135°24'0 0.1
2018-Jun-13 02:01N 34°33' E 135°24'1 1.2
2018-Jun-13 01:30N 34°33' E 135°23'3 5.5
2018-Jun-13 01:00N 34°33' E 135°20'0 0.3
2018-Jun-13 00:30N 34°33' E 135°20'611.5
2018-Jun-13 00:01N 34°38' E 135°24'4 0.1
2018-Jun-11 09:31N 34°40' E 135°27'0 4.3
2018-Jun-11 09:30N 34°40' E 135°27'3 6.8
2018-Jun-11 09:00N 34°37' E 135°25'0 0.3
2018-Jun-11 08:31N 34°37' E 135°25'  
Track history (hours):
 
Tides and Currents Weather Stations Pressure Air Temp Water Temp Dewpoint Dewpoint Depression Visibility Wind Speed Wind Dir Waves Ship Positions

Hooh Maru

Last reported at 2018-Jun-20 15:22 UTC. Time now 2018-Jun-23 11:50 UTC.
Position N 34°24' E 134°14'.

Length 38 m; draft 3 m.

Type: Tug. MMSI: 431008315.

Date/timePositionNaut miles runAvg speedWind from/ knotsBaromVisibWave heightAir tempDewpointWater temp
2018-Jun-20 15:22N 34°24' E 134°14'5 5.1
2018-Jun-20 14:19N 34°25' E 134°21'1 4.4
2018-Jun-20 14:00N 34°25' E 134°22'2 4.5
2018-Jun-20 13:29N 34°26' E 134°25'2 3.8
2018-Jun-20 13:00N 34°27' E 134°27'2 3.5
2018-Jun-20 12:29N 34°28' E 134°29'2 4.3
2018-Jun-20 12:00N 34°28' E 134°31'2 4.8
2018-Jun-20 11:30N 34°29' E 134°34'3 4.7
2018-Jun-20 10:58N 34°30' E 134°37'2 4.8
2018-Jun-20 10:30N 34°31' E 134°39'3 5.2
2018-Jun-20 10:00N 34°32' E 134°42'2 4.8
2018-Jun-20 09:29N 34°33' E 134°45'3 5.6
2018-Jun-20 09:00N 34°34' E 134°48'3 5.5
2018-Jun-20 08:29N 34°35' E 134°51'3 5.6
2018-Jun-20 07:59N 34°36' E 134°54'4 6.1
2018-Jun-20 07:24N 34°37' E 134°58'2 5.2
2018-Jun-20 06:57N 34°37' E 135°01'2 5.0
2018-Jun-20 06:30N 34°36' E 135°04'2 4.2
2018-Jun-20 06:00N 34°36' E 135°06'2 3.8
2018-Jun-20 05:30N 34°36' E 135°08'2 3.7
2018-Jun-20 05:00N 34°36' E 135°11'2 4.5
2018-Jun-20 04:30N 34°37' E 135°13'3 5.3
2018-Jun-20 04:00N 34°37' E 135°16'3 5.5
2018-Jun-20 03:30N 34°38' E 135°19'0 0.8
2018-Jun-20 03:00N 34°39' E 135°20'0 0.3
2018-Jun-20 02:30N 34°39' E 135°20'0 0.3
2018-Jun-20 02:00N 34°39' E 135°20'6 0.4
2018-Jun-19 11:09N 34°40' E 135°27'1 9.2
2018-Jun-19 11:00N 34°39' E 135°26'5 9.7
2018-Jun-19 10:30N 34°39' E 135°20'2 3.5
2018-Jun-19 10:00N 34°40' E 135°21'1 3.0
2018-Jun-19 09:30N 34°42' E 135°21'0 0.2
2018-Jun-19 09:00N 34°42' E 135°21'0 0.3
2018-Jun-19 08:30N 34°42' E 135°21'0 0.2
2018-Jun-19 08:00N 34°42' E 135°21'0 0.0
2018-Jun-19 07:30N 34°42' E 135°21'0 0.0
2018-Jun-19 07:00N 34°42' E 135°21'0 0.0
2018-Jun-19 06:30N 34°42' E 135°21'0 0.0
2018-Jun-19 06:00N 34°42' E 135°21'0 0.0
2018-Jun-19 05:30N 34°42' E 135°21'0 0.1
2018-Jun-19 05:00N 34°42' E 135°21'0 0.0
2018-Jun-19 04:29N 34°42' E 135°21'0 0.1
2018-Jun-19 03:59N 34°42' E 135°21'0 0.0
2018-Jun-19 03:30N 34°42' E 135°21'0 0.0
2018-Jun-19 03:00N 34°42' E 135°21'4 7.6
2018-Jun-19 02:30N 34°39' E 135°25'2 0.8
2018-Jun-18 23:31N 34°40' E 135°27'0 0.0
2018-Jun-18 23:05N 34°40' E 135°27'0 0.0
2018-Jun-18 22:46N 34°40' E 135°27'0 0.0
2018-Jun-18 06:57N 34°40' E 135°27'410.0
2018-Jun-18 06:30N 34°41' E 135°22'1 2.2
2018-Jun-18 06:00N 34°42' E 135°21'0 0.0
2018-Jun-18 05:29N 34°42' E 135°21'0 0.0
2018-Jun-18 05:00N 34°42' E 135°21'0 0.0
2018-Jun-18 04:30N 34°42' E 135°21'0 0.1
2018-Jun-18 04:00N 34°42' E 135°21'0 0.0
2018-Jun-18 03:30N 34°42' E 135°21'0 0.0
2018-Jun-18 03:00N 34°42' E 135°21'0 0.0
2018-Jun-18 02:30N 34°42' E 135°21'0 0.0
2018-Jun-18 02:00N 34°42' E 135°21'0 0.0
2018-Jun-18 01:30N 34°42' E 135°21'0 0.0
2018-Jun-18 01:00N 34°42' E 135°21'0 0.0
2018-Jun-18 00:30N 34°42' E 135°21'0 0.0
2018-Jun-18 00:00N 34°42' E 135°21'0 0.0
2018-Jun-17 23:30N 34°42' E 135°21'0 0.0
2018-Jun-17 23:00N 34°42' E 135°21'0 0.0
2018-Jun-17 22:30N 34°42' E 135°21'0 0.0
2018-Jun-17 22:00N 34°42' E 135°21'0 0.0
2018-Jun-17 21:30N 34°42' E 135°21'0 0.0
2018-Jun-17 21:00N 34°42' E 135°21'0 0.0
2018-Jun-17 20:30N 34°42' E 135°21'0 0.0
2018-Jun-17 20:00N 34°42' E 135°21'0 0.0
2018-Jun-17 19:30N 34°42' E 135°21'0 0.0
2018-Jun-17 19:00N 34°42' E 135°21'0 0.0
2018-Jun-17 18:30N 34°42' E 135°21'0 0.0
2018-Jun-17 18:00N 34°42' E 135°21'0 0.0
2018-Jun-17 17:30N 34°42' E 135°21'0 0.0
2018-Jun-17 17:00N 34°42' E 135°21'0 0.0
2018-Jun-17 16:30N 34°42' E 135°21'0 0.0
2018-Jun-17 16:00N 34°42' E 135°21'0 0.0
2018-Jun-17 15:30N 34°42' E 135°21'0 0.0
2018-Jun-17 15:00N 34°42' E 135°21'0 0.0
2018-Jun-17 14:30N 34°42' E 135°21'0 0.0
2018-Jun-17 14:00N 34°42' E 135°21'0 0.0
2018-Jun-17 13:30N 34°42' E 135°21'0 0.0
2018-Jun-17 13:00N 34°42' E 135°21'0 0.0
2018-Jun-17 12:30N 34°42' E 135°21'0 0.0
2018-Jun-17 12:00N 34°42' E 135°21'0 0.1
2018-Jun-17 11:30N 34°42' E 135°21'0 0.0
2018-Jun-17 11:00N 34°42' E 135°21'0 0.1
2018-Jun-17 10:30N 34°42' E 135°21'0 0.0
2018-Jun-17 10:00N 34°42' E 135°21'0 0.1
2018-Jun-17 09:30N 34°42' E 135°21'0 0.0
2018-Jun-17 09:00N 34°42' E 135°21'0 0.0
2018-Jun-17 08:30N 34°42' E 135°21'0 0.0
2018-Jun-17 08:00N 34°42' E 135°21'0 0.0
2018-Jun-17 07:30N 34°42' E 135°21'0 0.0
2018-Jun-17 07:00N 34°42' E 135°21'0 0.0
2018-Jun-17 06:30N 34°42' E 135°21'0 0.0
2018-Jun-17 06:00N 34°42' E 135°21'0 0.0
2018-Jun-17 05:30N 34°42' E 135°21'0 0.0
2018-Jun-17 05:00N 34°42' E 135°21'0 0.0
2018-Jun-17 04:30N 34°42' E 135°21'0 0.0
2018-Jun-17 04:00N 34°42' E 135°21'0 0.0
2018-Jun-17 03:30N 34°42' E 135°21'0 0.1
2018-Jun-17 03:00N 34°42' E 135°21'1 1.5
2018-Jun-17 02:30N 34°41' E 135°22'3 5.5
2018-Jun-17 02:00N 34°38' E 135°23'3 5.1
2018-Jun-17 01:30N 34°39' E 135°26'0 0.2
2018-Jun-17 01:00N 34°39' E 135°26'0 0.2
2018-Jun-17 00:30N 34°39' E 135°26'0 0.1
2018-Jun-17 00:00N 34°39' E 135°26'0 0.0
2018-Jun-16 23:30N 34°39' E 135°26'0 0.0
2018-Jun-16 23:00N 34°39' E 135°26'0 0.0
2018-Jun-16 22:30N 34°39' E 135°26'0 0.1
2018-Jun-16 21:58N 34°39' E 135°26'0 0.0
2018-Jun-16 21:30N 34°39' E 135°26'0 0.3
2018-Jun-16 21:00N 34°39' E 135°26'2 4.2
2018-Jun-16 20:30N 34°38' E 135°23'3 5.1
2018-Jun-16 20:00N 34°37' E 135°21'2 4.9
2018-Jun-16 19:30N 34°37' E 135°18'3 5.9
2018-Jun-16 18:59N 34°40' E 135°15'2 3.7
2018-Jun-16 18:30N 34°41' E 135°14'0 0.2
2018-Jun-16 18:00N 34°41' E 135°14'0 0.0
2018-Jun-16 17:30N 34°41' E 135°14'0 0.0
2018-Jun-16 17:00N 34°41' E 135°14'0 0.0
2018-Jun-16 16:30N 34°41' E 135°14'0 0.0
2018-Jun-16 16:00N 34°41' E 135°14'0 0.0
2018-Jun-16 15:30N 34°41' E 135°14'0 0.0
2018-Jun-16 15:00N 34°41' E 135°14'0 0.0
2018-Jun-16 14:30N 34°41' E 135°14'0 0.0
2018-Jun-16 14:00N 34°41' E 135°14'0 0.0
2018-Jun-16 13:30N 34°41' E 135°14'0 0.0
2018-Jun-16 13:00N 34°41' E 135°14'0 0.0
2018-Jun-16 12:30N 34°41' E 135°14'0 0.0
2018-Jun-16 12:00N 34°41' E 135°14'0 0.0
2018-Jun-16 11:30N 34°41' E 135°14'0 0.0
2018-Jun-16 11:00N 34°41' E 135°14'0 0.0
2018-Jun-16 10:30N 34°41' E 135°14'0 0.0
2018-Jun-16 10:00N 34°41' E 135°14'0 0.0
2018-Jun-16 09:30N 34°41' E 135°14'0 0.0
2018-Jun-16 09:00N 34°41' E 135°14'0 0.0
2018-Jun-16 08:30N 34°41' E 135°14'0 0.0
2018-Jun-16 08:00N 34°41' E 135°14'0 0.0
2018-Jun-16 07:30N 34°41' E 135°14'0 0.0
2018-Jun-16 06:58N 34°41' E 135°14'0 0.0
2018-Jun-16 06:30N 34°41' E 135°14'0 0.0
2018-Jun-16 06:00N 34°41' E 135°14'3 5.8
2018-Jun-16 05:30N 34°41' E 135°18'612.8
2018-Jun-16 05:00N 34°39' E 135°25'2 0.1
2018-Jun-15 00:27N 34°40' E 135°27'0 0.0
2018-Jun-14 20:36N 34°40' E 135°27'1 0.0
2018-Jun-14 08:15N 34°40' E 135°27'312.2
2018-Jun-14 08:00N 34°38' E 135°24'5 9.7
2018-Jun-14 07:30N 34°33' E 135°24'1 1.5
2018-Jun-14 06:50N 34°33' E 135°25'1 0.3
2018-Jun-14 02:24N 34°33' E 135°27'0 0.0
2018-Jun-14 00:44N 34°33' E 135°27'0 0.0
2018-Jun-14 00:27N 34°33' E 135°27'0 0.0
2018-Jun-13 23:25N 34°33' E 135°27'2 5.2
2018-Jun-13 23:00N 34°33' E 135°24'1 2.4
2018-Jun-13 22:30N 34°32' E 135°24'1 2.8
2018-Jun-13 22:00N 34°33' E 135°23'0 0.3
2018-Jun-13 21:31N 34°33' E 135°23'611.3
2018-Jun-13 21:01N 34°39' E 135°25'2 0.1
2018-Jun-13 04:14N 34°40' E 135°27'210.3
2018-Jun-13 04:01N 34°39' E 135°25'611.4
2018-Jun-13 03:30N 34°33' E 135°23'1 1.4
2018-Jun-13 02:56N 34°33' E 135°24'0 0.0
2018-Jun-13 02:28N 34°33' E 135°24'0 0.1
2018-Jun-13 02:01N 34°33' E 135°24'1 1.2
2018-Jun-13 01:30N 34°33' E 135°23'3 5.5
2018-Jun-13 01:00N 34°33' E 135°20'0 0.3
2018-Jun-13 00:30N 34°33' E 135°20'611.5
2018-Jun-13 00:01N 34°38' E 135°24'4 0.1
2018-Jun-11 09:31N 34°40' E 135°27'0 4.3
2018-Jun-11 09:30N 34°40' E 135°27'3 6.8
2018-Jun-11 09:00N 34°37' E 135°25'0 0.3
2018-Jun-11 08:31N 34°37' E 135°25'  

Dump ship's entire track history